createdAt,value
2019-03-13T00:00:44.056Z,22.15
2019-03-13T00:02:45.654Z,22.13
2019-03-13T00:04:47.251Z,22.11
2019-03-13T00:06:48.855Z,22.13
2019-03-13T00:08:50.494Z,22.15
2019-03-13T00:10:52.103Z,22.16
2019-03-13T00:12:53.715Z,22.17
2019-03-13T00:14:55.324Z,22.15
2019-03-13T00:16:56.922Z,22.17
2019-03-13T00:18:58.545Z,22.16
2019-03-13T00:21:00.141Z,22.16
2019-03-13T00:23:01.734Z,22.12
2019-03-13T00:25:03.329Z,22.16
2019-03-13T00:27:04.927Z,22.16
2019-03-13T00:29:06.536Z,22.17
2019-03-13T00:31:08.162Z,22.17
2019-03-13T00:33:09.768Z,22.14
2019-03-13T00:35:11.366Z,22.12
2019-03-13T00:37:12.968Z,22.11
2019-03-13T00:39:14.719Z,22.09
2019-03-13T00:41:16.318Z,22.09
2019-03-13T00:43:17.903Z,22.09
2019-03-13T00:45:19.497Z,22.09
2019-03-13T00:47:21.090Z,22.11
2019-03-13T00:49:22.749Z,22.10
2019-03-13T00:51:24.364Z,22.10
2019-03-13T00:53:25.968Z,22.09
2019-03-13T00:55:27.562Z,22.09
2019-03-13T00:57:29.224Z,22.07
2019-03-13T00:59:30.836Z,22.06
2019-03-13T01:01:33.247Z,22.09
2019-03-13T01:03:34.832Z,22.11
2019-03-13T01:05:38.987Z,22.11
2019-03-13T01:07:40.586Z,22.10
2019-03-13T01:09:42.187Z,22.07
2019-03-13T01:11:43.814Z,22.06
2019-03-13T01:13:45.424Z,22.05
2019-03-13T01:15:47.069Z,21.79
2019-03-13T01:17:48.655Z,22.01
2019-03-13T01:19:50.264Z,22.02
2019-03-13T01:21:51.893Z,22.00
2019-03-13T01:23:53.487Z,21.99
2019-03-13T01:25:55.108Z,21.96
2019-03-13T01:27:56.702Z,21.98
2019-03-13T01:29:58.308Z,21.98
2019-03-13T01:32:00.402Z,21.98
2019-03-13T01:34:07.656Z,22.00
2019-03-13T01:36:09.250Z,22.03
2019-03-13T01:38:10.855Z,22.03
2019-03-13T01:40:12.490Z,22.04
2019-03-13T01:42:14.085Z,22.08
2019-03-13T01:44:15.730Z,22.11
2019-03-13T01:46:17.333Z,22.11
2019-03-13T01:48:18.926Z,22.08
2019-03-13T01:50:20.536Z,22.12
2019-03-13T01:52:22.161Z,22.18
2019-03-13T01:54:23.753Z,22.18
2019-03-13T01:56:25.349Z,22.17
2019-03-13T01:58:26.968Z,22.16
2019-03-13T02:00:28.553Z,22.17
2019-03-13T02:02:30.164Z,22.15
2019-03-13T02:04:31.781Z,22.16
2019-03-13T02:06:33.383Z,22.14
2019-03-13T02:08:34.977Z,22.11
2019-03-13T02:10:36.569Z,22.13
2019-03-13T02:12:38.173Z,22.11
2019-03-13T02:14:39.820Z,22.11
2019-03-13T02:16:41.498Z,22.10
2019-03-13T02:18:43.097Z,22.10
2019-03-13T02:20:44.689Z,22.10
2019-03-13T02:22:46.293Z,22.07
2019-03-13T02:24:47.918Z,22.07
2019-03-13T02:26:49.523Z,22.05
2019-03-13T02:28:51.150Z,22.03
2019-03-13T02:30:52.746Z,22.06
2019-03-13T02:32:54.363Z,22.08
2019-03-13T02:34:55.991Z,22.05
2019-03-13T02:36:57.595Z,22.03
2019-03-13T02:38:59.231Z,22.00
2019-03-13T02:41:00.838Z,22.00
2019-03-13T02:43:02.471Z,22.00
2019-03-13T02:45:04.106Z,22.00
2019-03-13T02:47:05.708Z,22.01
2019-03-13T02:49:07.316Z,22.05
2019-03-13T02:51:08.901Z,22.07
2019-03-13T02:53:10.498Z,22.14
2019-03-13T02:55:12.209Z,22.14
2019-03-13T02:57:13.809Z,22.16
2019-03-13T02:59:15.434Z,22.16
2019-03-13T03:01:22.592Z,22.17
2019-03-13T03:03:31.731Z,22.17
2019-03-13T03:05:33.336Z,22.18
2019-03-13T03:07:34.971Z,22.18
2019-03-13T03:09:36.577Z,22.19
2019-03-13T03:11:38.209Z,22.21
2019-03-13T03:13:39.816Z,22.22
2019-03-13T03:15:41.420Z,22.22
2019-03-13T03:17:43.064Z,21.99
2019-03-13T03:19:44.675Z,22.22
2019-03-13T03:21:46.312Z,22.23
2019-03-13T03:23:47.921Z,22.22
2019-03-13T03:25:49.526Z,22.24
2019-03-13T03:27:51.131Z,22.23
2019-03-13T03:29:52.740Z,22.25
2019-03-13T03:31:54.348Z,22.26
2019-03-13T03:33:55.961Z,22.27
2019-03-13T03:35:57.585Z,22.24
2019-03-13T03:37:59.196Z,22.20
2019-03-13T03:40:00.794Z,22.18
2019-03-13T03:42:02.391Z,22.18
2019-03-13T03:44:04.018Z,22.18
2019-03-13T03:46:05.627Z,22.17
2019-03-13T03:48:07.269Z,22.14
2019-03-13T03:50:08.869Z,22.11
2019-03-13T03:52:10.480Z,22.10
2019-03-13T03:54:12.115Z,22.09
2019-03-13T03:56:14.256Z,22.11
2019-03-13T03:58:15.900Z,22.16
2019-03-13T04:00:17.668Z,22.18
2019-03-13T04:02:19.192Z,22.13
2019-03-13T04:04:20.804Z,22.14
2019-03-13T04:06:22.402Z,22.16
2019-03-13T04:08:23.988Z,22.15
2019-03-13T04:10:25.596Z,22.15
2019-03-13T04:12:27.216Z,22.15
2019-03-13T04:14:28.868Z,22.11
2019-03-13T04:16:30.474Z,22.08
2019-03-13T04:18:32.073Z,22.07
2019-03-13T04:20:33.683Z,22.06
2019-03-13T04:22:35.293Z,22.05
2019-03-13T04:24:36.933Z,22.08
2019-03-13T04:26:38.530Z,22.09
2019-03-13T04:28:40.126Z,22.09
2019-03-13T04:30:41.727Z,22.11
2019-03-13T04:32:43.346Z,22.13
2019-03-13T04:34:45.164Z,22.13
2019-03-13T04:36:46.748Z,22.15
2019-03-13T04:38:48.356Z,22.17
2019-03-13T04:40:49.954Z,22.19
2019-03-13T04:42:51.664Z,22.20
2019-03-13T04:44:53.199Z,22.21
2019-03-13T04:46:54.795Z,22.23
2019-03-13T04:48:56.385Z,22.24
2019-03-13T04:50:58.017Z,22.24
2019-03-13T04:52:59.635Z,22.24
2019-03-13T04:55:01.259Z,22.25
2019-03-13T04:57:02.888Z,22.23
2019-03-13T04:59:04.502Z,22.02
2019-03-13T05:01:06.128Z,22.26
2019-03-13T05:03:07.722Z,22.29
2019-03-13T05:05:09.321Z,22.28
2019-03-13T05:07:10.941Z,22.20
2019-03-13T05:09:12.548Z,22.16
2019-03-13T05:11:14.164Z,22.00
2019-03-13T05:13:15.788Z,22.03
2019-03-13T05:15:17.395Z,21.98
2019-03-13T05:17:18.997Z,21.92
2019-03-13T05:19:20.593Z,21.86
2019-03-13T05:21:22.236Z,21.78
2019-03-13T05:23:23.848Z,21.74
2019-03-13T05:25:25.493Z,21.71
2019-03-13T05:27:27.099Z,21.68
2019-03-13T05:29:28.703Z,21.67
2019-03-13T05:31:30.317Z,21.68
2019-03-13T05:33:31.913Z,21.73
2019-03-13T05:35:33.522Z,21.75
2019-03-13T05:37:35.150Z,21.79
2019-03-13T05:39:36.745Z,21.84
2019-03-13T05:41:38.356Z,21.89
2019-03-13T05:43:39.967Z,21.93
2019-03-13T05:45:41.567Z,21.64
2019-03-13T05:47:43.199Z,22.06
2019-03-13T05:49:44.798Z,22.11
2019-03-13T05:51:46.448Z,22.12
2019-03-13T05:53:48.045Z,22.13
2019-03-13T05:55:49.638Z,22.15
2019-03-13T05:57:51.280Z,22.22
2019-03-13T05:59:52.900Z,22.24
2019-03-13T06:01:54.498Z,22.28
2019-03-13T06:03:56.108Z,22.31
2019-03-13T06:05:57.696Z,22.33
2019-03-13T06:07:59.299Z,22.33
2019-03-13T06:10:00.947Z,22.33
2019-03-13T06:12:02.548Z,22.35
2019-03-13T06:14:04.172Z,22.38
2019-03-13T06:16:05.786Z,22.37
2019-03-13T06:18:09.764Z,22.33
2019-03-13T06:20:10.576Z,22.31
2019-03-13T06:22:10.720Z,22.31
2019-03-13T06:24:12.313Z,22.31
2019-03-13T06:26:13.905Z,22.28
2019-03-13T06:28:15.516Z,22.26
2019-03-13T06:30:17.109Z,22.24
2019-03-13T06:32:18.702Z,22.21
2019-03-13T06:34:20.316Z,22.17
2019-03-13T06:36:21.928Z,22.16
2019-03-13T06:38:23.526Z,22.08
2019-03-13T06:40:25.143Z,22.08
2019-03-13T06:42:26.738Z,22.05
2019-03-13T06:44:28.333Z,22.01
2019-03-13T06:46:29.941Z,22.03
2019-03-13T06:48:31.537Z,22.00
2019-03-13T06:50:33.136Z,21.98
2019-03-13T06:52:34.752Z,21.97
2019-03-13T06:54:36.357Z,21.97
2019-03-13T06:56:38.001Z,21.97
2019-03-13T06:58:40.200Z,21.96
2019-03-13T07:00:47.271Z,21.94
2019-03-13T07:02:52.415Z,21.94
2019-03-13T07:04:57.793Z,21.97
2019-03-13T07:07:14.258Z,21.98
2019-03-13T07:09:33.685Z,21.96
2019-03-13T07:11:35.329Z,21.97
2019-03-13T07:13:52.735Z,21.97
2019-03-13T07:15:57.038Z,22.07
2019-03-13T07:18:13.515Z,22.11
2019-03-13T07:20:15.138Z,21.90
2019-03-13T07:22:36.515Z,22.18
2019-03-13T07:24:39.033Z,22.21
2019-03-13T07:26:41.113Z,22.26
2019-03-13T07:28:47.267Z,22.31
2019-03-13T07:30:53.322Z,22.33
2019-03-13T07:32:56.591Z,22.36
2019-03-13T07:35:00.580Z,22.37
2019-03-13T07:37:04.220Z,22.37
2019-03-13T07:39:17.529Z,22.35
2019-03-13T07:41:19.137Z,22.38
2019-03-13T07:43:35.613Z,22.36
2019-03-13T07:45:54.866Z,22.32
2019-03-13T07:48:00.171Z,22.33
2019-03-13T07:50:03.385Z,22.32
2019-03-13T07:52:20.776Z,22.33
2019-03-13T07:54:25.979Z,22.34
2019-03-13T07:56:46.324Z,22.35
2019-03-13T07:58:52.545Z,22.29
2019-03-13T08:00:54.137Z,22.37
2019-03-13T08:02:58.578Z,22.41
2019-03-13T08:05:06.647Z,22.43
2019-03-13T08:07:16.798Z,22.48
2019-03-13T08:09:34.027Z,22.57
2019-03-13T08:11:53.406Z,22.64
2019-03-13T08:13:58.794Z,22.76
2019-03-13T08:16:03.961Z,22.87
2019-03-13T08:18:26.476Z,22.93
2019-03-13T08:20:30.592Z,21.55
2019-03-13T08:22:34.975Z,20.30
2019-03-13T08:24:48.431Z,20.76
2019-03-13T08:27:03.888Z,21.50
2019-03-13T08:29:06.928Z,21.97
2019-03-13T08:31:10.207Z,22.13
2019-03-13T08:33:27.598Z,22.25
2019-03-13T08:35:31.998Z,22.32
2019-03-13T08:37:34.336Z,22.30
2019-03-13T08:39:36.679Z,22.48
2019-03-13T08:41:58.067Z,22.61
2019-03-13T08:44:08.086Z,22.71
2019-03-13T08:46:10.291Z,22.74
2019-03-13T08:48:26.769Z,22.83
2019-03-13T08:50:34.073Z,22.81
2019-03-13T08:52:51.275Z,22.81
2019-03-13T08:54:58.601Z,22.81
2019-03-13T08:57:02.675Z,22.88
2019-03-13T08:59:06.979Z,22.86
2019-03-13T09:01:24.253Z,22.71
2019-03-13T09:03:29.492Z,22.66
2019-03-13T09:05:41.747Z,22.59
2019-03-13T09:07:53.257Z,22.51
2019-03-13T09:09:58.305Z,22.44
2019-03-13T09:12:18.661Z,22.61
2019-03-13T09:14:38.013Z,22.43
2019-03-13T09:16:39.620Z,22.29
2019-03-13T09:18:43.742Z,22.22
2019-03-13T09:20:51.245Z,22.11
2019-03-13T09:22:54.380Z,22.35
2019-03-13T09:24:56.635Z,22.53
2019-03-13T09:26:58.240Z,22.64
2019-03-13T09:29:01.541Z,22.25
2019-03-13T09:31:06.077Z,22.75
2019-03-13T09:33:10.604Z,22.75
2019-03-13T09:35:12.220Z,22.78
2019-03-13T09:37:32.581Z,22.81
2019-03-13T09:39:39.907Z,22.81
2019-03-13T09:41:58.254Z,22.75
2019-03-13T09:44:00.138Z,22.71
2019-03-13T09:46:04.259Z,22.37
2019-03-13T09:48:06.793Z,22.27
2019-03-13T09:50:28.107Z,22.21
2019-03-13T09:52:32.568Z,22.10
2019-03-13T09:54:49.938Z,22.04
2019-03-13T09:57:02.316Z,22.00
2019-03-13T09:59:04.788Z,21.96
2019-03-13T10:01:13.010Z,22.14
2019-03-13T10:03:15.358Z,22.07
2019-03-13T10:05:33.968Z,22.02
2019-03-13T10:07:42.056Z,21.99
2019-03-13T10:10:02.583Z,21.98
2019-03-13T10:12:18.997Z,21.80
2019-03-13T10:14:35.477Z,22.02
2019-03-13T10:16:53.771Z,21.89
2019-03-13T10:18:58.268Z,22.15
2019-03-13T10:21:00.868Z,22.16
2019-03-13T10:23:08.242Z,22.27
2019-03-13T10:25:21.500Z,22.24
2019-03-13T10:27:23.862Z,22.36
2019-03-13T10:29:45.300Z,22.35
2019-03-13T10:31:48.294Z,22.63
2019-03-13T10:33:51.322Z,22.83
2019-03-13T10:36:10.912Z,22.88
2019-03-13T10:38:29.240Z,22.72
2019-03-13T10:40:38.511Z,22.59
2019-03-13T10:42:45.997Z,22.54
2019-03-13T10:44:47.603Z,22.32
2019-03-13T10:47:10.264Z,22.43
2019-03-13T10:49:11.920Z,22.37
2019-03-13T10:51:22.158Z,22.34
2019-03-13T10:53:36.664Z,22.28
2019-03-13T10:55:39.188Z,22.24
2019-03-13T10:57:56.487Z,22.23
2019-03-13T11:00:00.648Z,22.23
2019-03-13T11:02:02.256Z,22.18
2019-03-13T11:04:06.517Z,22.13
2019-03-13T11:06:14.055Z,22.09
2019-03-13T11:08:28.370Z,22.04
2019-03-13T11:10:30.016Z,22.04
2019-03-13T11:12:34.478Z,22.00
2019-03-13T11:14:51.918Z,21.87
2019-03-13T11:16:55.161Z,22.13
2019-03-13T11:19:11.696Z,22.38
2019-03-13T11:21:15.905Z,22.36
2019-03-13T11:23:17.513Z,22.32
2019-03-13T11:25:35.817Z,22.47
2019-03-13T11:27:38.360Z,22.33
2019-03-13T11:29:52.657Z,22.21
2019-03-13T11:31:56.940Z,22.14
2019-03-13T11:34:02.027Z,22.22
2019-03-13T11:36:18.506Z,22.37
2019-03-13T11:38:24.020Z,22.46
2019-03-13T11:40:28.338Z,22.30
2019-03-13T11:42:32.574Z,21.94
2019-03-13T11:44:36.843Z,22.10
2019-03-13T11:46:42.961Z,22.10
2019-03-13T11:48:45.335Z,21.93
2019-03-13T11:51:05.836Z,22.01
2019-03-13T11:53:11.406Z,21.96
2019-03-13T11:55:33.577Z,21.92
2019-03-13T11:57:45.924Z,21.91
2019-03-13T11:59:52.104Z,21.90
2019-03-13T12:01:55.122Z,21.92
2019-03-13T12:04:16.496Z,21.92
2019-03-13T12:06:23.725Z,21.93
2019-03-13T12:08:44.984Z,21.94
2019-03-13T12:11:05.507Z,21.94
2019-03-13T12:15:38.578Z,21.94
2019-03-13T12:17:55.987Z,21.94
2019-03-13T12:20:01.269Z,21.96
2019-03-13T12:22:02.991Z,21.97
2019-03-13T12:24:21.294Z,21.95
2019-03-13T12:26:38.605Z,21.95
2019-03-13T12:28:41.593Z,21.97
2019-03-13T12:30:59.023Z,21.99
2019-03-13T12:33:12.308Z,21.88
2019-03-13T12:35:28.845Z,21.99
2019-03-13T12:37:33.908Z,21.99
2019-03-13T12:39:36.239Z,22.01
2019-03-13T12:41:55.704Z,22.00
2019-03-13T12:44:01.046Z,22.02
2019-03-13T12:46:03.827Z,22.03
2019-03-13T12:48:21.095Z,22.04
2019-03-13T12:50:23.433Z,22.02
2019-03-13T12:52:27.540Z,22.02
2019-03-13T12:54:54.218Z,22.00
2019-03-13T12:57:12.750Z,21.99
2019-03-13T12:59:18.564Z,21.98
2019-03-13T13:01:25.932Z,22.00
2019-03-13T13:03:27.544Z,21.98
2019-03-13T13:05:44.021Z,21.98
2019-03-13T13:08:04.512Z,21.99
2019-03-13T13:10:21.856Z,21.76
2019-03-13T13:12:38.348Z,22.00
2019-03-13T13:14:52.280Z,22.00
2019-03-13T13:16:57.467Z,21.99
2019-03-13T13:18:59.065Z,21.99
2019-03-13T13:21:00.721Z,21.97
2019-03-13T13:23:02.368Z,21.94
2019-03-13T13:25:03.966Z,21.92
2019-03-13T13:27:05.576Z,21.92
2019-03-13T13:29:07.320Z,21.90
2019-03-13T13:31:09.017Z,21.94
2019-03-13T13:33:10.622Z,22.04
2019-03-13T13:35:12.234Z,22.14
2019-03-13T13:37:13.843Z,22.17
2019-03-13T13:39:15.569Z,22.22
2019-03-13T13:41:17.166Z,22.26
2019-03-13T13:43:18.781Z,22.31
2019-03-13T13:45:20.622Z,22.33
2019-03-13T13:47:22.217Z,22.37
2019-03-13T13:49:23.808Z,22.40
2019-03-13T13:51:25.420Z,22.43
2019-03-13T13:53:27.075Z,22.45
2019-03-13T13:55:28.674Z,22.47
2019-03-13T13:57:30.274Z,22.51
2019-03-13T13:59:31.876Z,22.54
2019-03-13T14:01:33.496Z,22.56
2019-03-13T14:03:35.389Z,22.58
2019-03-13T14:05:37.012Z,22.64
2019-03-13T14:07:38.673Z,22.72
2019-03-13T14:09:40.332Z,22.72
2019-03-13T14:11:41.982Z,22.69
2019-03-13T14:13:43.652Z,22.65
2019-03-13T14:15:45.302Z,22.64
2019-03-13T14:17:46.913Z,22.59
2019-03-13T14:19:48.504Z,22.55
2019-03-13T14:21:50.088Z,22.53
2019-03-13T14:23:51.692Z,22.55
2019-03-13T14:25:53.289Z,22.54
2019-03-13T14:27:54.930Z,22.51
2019-03-13T14:29:56.530Z,22.48
2019-03-13T14:31:58.134Z,22.51
2019-03-13T14:33:59.810Z,22.56
2019-03-13T14:36:01.406Z,22.47
2019-03-13T14:38:03.042Z,22.50
2019-03-13T14:40:04.652Z,22.54
2019-03-13T14:42:06.252Z,22.54
2019-03-13T14:44:07.885Z,22.55
2019-03-13T14:46:09.717Z,22.57
2019-03-13T14:48:11.422Z,22.78
2019-03-13T14:50:13.636Z,22.59
2019-03-13T14:52:15.266Z,22.51
2019-03-13T14:54:16.863Z,22.81
2019-03-13T14:56:18.463Z,23.13
2019-03-13T14:58:20.097Z,23.21
2019-03-13T15:00:21.716Z,23.35
2019-03-13T15:02:23.329Z,23.09
2019-03-13T15:04:24.945Z,22.59
2019-03-13T15:06:26.551Z,22.79
2019-03-13T15:08:28.212Z,22.93
2019-03-13T15:10:29.834Z,23.13
2019-03-13T15:12:31.439Z,23.23
2019-03-13T15:14:33.043Z,23.32
2019-03-13T15:16:34.638Z,23.31
2019-03-13T15:18:36.273Z,23.33
2019-03-13T15:20:37.878Z,23.36
2019-03-13T15:22:39.849Z,23.43
2019-03-13T15:24:41.458Z,23.24
2019-03-13T15:26:43.062Z,23.30
2019-03-13T15:28:44.696Z,23.39
2019-03-13T15:30:46.290Z,23.32
2019-03-13T15:32:47.924Z,22.87
2019-03-13T15:34:49.522Z,22.92
2019-03-13T15:36:51.137Z,23.06
2019-03-13T15:38:52.756Z,23.02
2019-03-13T15:40:54.362Z,23.07
2019-03-13T15:42:55.985Z,23.06
2019-03-13T15:44:57.600Z,23.15
2019-03-13T15:46:59.194Z,23.23
2019-03-13T15:49:00.795Z,23.17
2019-03-13T15:51:02.408Z,23.19
2019-03-13T15:53:04.078Z,23.22
2019-03-13T15:55:05.708Z,23.25
2019-03-13T15:57:07.311Z,23.24
2019-03-13T15:59:08.904Z,23.26
2019-03-13T16:01:10.498Z,23.16
2019-03-13T16:03:12.123Z,23.03
2019-03-13T16:05:13.738Z,22.58
2019-03-13T16:07:15.348Z,22.25
2019-03-13T16:09:17.718Z,22.15
2019-03-13T16:11:19.308Z,22.09
2019-03-13T16:13:20.948Z,22.05
2019-03-13T16:15:22.558Z,22.03
2019-03-13T16:17:24.168Z,22.01
2019-03-13T16:19:25.780Z,22.01
2019-03-13T16:21:27.392Z,22.00
2019-03-13T16:23:29.023Z,22.42
2019-03-13T16:25:30.634Z,22.73
2019-03-13T16:27:32.233Z,22.87
2019-03-13T16:29:33.828Z,22.93
2019-03-13T16:31:35.422Z,23.08
2019-03-13T16:33:37.105Z,23.13
2019-03-13T16:35:38.722Z,23.19
2019-03-13T16:37:40.333Z,23.26
2019-03-13T16:39:41.985Z,23.17
2019-03-13T16:41:43.625Z,23.19
2019-03-13T16:43:45.217Z,23.28
2019-03-13T16:45:46.828Z,23.33
2019-03-13T16:47:48.463Z,23.38
2019-03-13T16:49:50.109Z,23.52
2019-03-13T16:51:51.718Z,23.54
2019-03-13T16:53:53.317Z,23.28
2019-03-13T16:55:54.945Z,22.98
2019-03-13T16:57:56.593Z,22.75
2019-03-13T17:00:00.759Z,22.90
2019-03-13T17:02:00.019Z,22.86
2019-03-13T17:04:01.604Z,22.65
2019-03-13T17:06:07.087Z,22.39
2019-03-13T17:08:09.355Z,22.62
2019-03-13T17:10:10.950Z,22.51
2019-03-13T17:12:13.223Z,22.57
2019-03-13T17:14:14.823Z,22.95
2019-03-13T17:18:30.448Z,23.11
2019-03-13T17:20:32.078Z,22.81
2019-03-13T17:22:33.674Z,22.38
2019-03-13T17:24:35.325Z,22.30
2019-03-13T17:26:36.927Z,22.62
2019-03-13T17:28:38.576Z,22.67
2019-03-13T17:30:40.196Z,22.71
2019-03-13T17:32:41.814Z,22.77
2019-03-13T17:34:43.433Z,22.79
2019-03-13T17:36:45.030Z,22.78
2019-03-13T17:38:46.616Z,22.81
2019-03-13T17:40:48.256Z,23.08
2019-03-13T17:42:49.854Z,22.98
2019-03-13T17:44:51.455Z,22.88
2019-03-13T17:46:53.064Z,22.79
2019-03-13T17:48:54.666Z,22.81
2019-03-13T17:50:56.280Z,22.61
2019-03-13T17:52:57.919Z,22.65
2019-03-13T17:54:59.505Z,22.71
2019-03-13T17:57:01.112Z,22.75
2019-03-13T17:59:02.724Z,22.63
2019-03-13T18:01:04.364Z,22.82
2019-03-13T18:03:05.976Z,22.87
2019-03-13T18:05:07.583Z,22.83
2019-03-13T18:07:09.177Z,22.82
2019-03-13T18:09:10.789Z,22.82
2019-03-13T18:11:12.422Z,23.06
2019-03-13T18:13:14.012Z,22.99
2019-03-13T18:15:15.606Z,22.87
2019-03-13T18:17:17.243Z,22.70
2019-03-13T18:19:18.847Z,22.71
2019-03-13T18:21:20.455Z,22.80
2019-03-13T18:23:22.089Z,22.82
2019-03-13T18:25:23.714Z,22.83
2019-03-13T18:27:25.310Z,22.53
2019-03-13T18:29:26.901Z,22.69
2019-03-13T18:31:28.502Z,22.73
2019-03-13T18:33:30.142Z,22.75
2019-03-13T18:35:31.745Z,22.84
2019-03-13T18:37:33.355Z,22.81
2019-03-13T18:39:34.978Z,22.84
2019-03-13T18:41:36.578Z,22.82
2019-03-13T18:43:38.210Z,22.78
2019-03-13T18:45:39.796Z,22.74
2019-03-13T18:47:41.418Z,22.76
2019-03-13T18:49:43.045Z,22.74
2019-03-13T18:51:44.648Z,22.73
2019-03-13T18:53:46.268Z,22.76
2019-03-13T18:55:47.897Z,22.94
2019-03-13T18:57:50.801Z,22.76
2019-03-13T18:59:51.175Z,22.85
2019-03-13T19:01:52.767Z,22.80
2019-03-13T19:03:54.375Z,22.81
2019-03-13T19:05:56.071Z,22.80
2019-03-13T19:07:57.641Z,22.82
2019-03-13T19:09:59.221Z,22.84
2019-03-13T19:12:00.815Z,22.87
2019-03-13T19:14:04.036Z,22.86
2019-03-13T19:16:05.652Z,22.97
2019-03-13T19:18:07.249Z,22.99
2019-03-13T19:20:11.773Z,22.98
2019-03-13T19:22:10.502Z,23.01
2019-03-13T19:24:12.086Z,22.96
2019-03-13T19:26:13.688Z,22.96
2019-03-13T19:28:15.308Z,22.87
2019-03-13T19:30:16.925Z,22.83
2019-03-13T19:32:18.521Z,22.88
2019-03-13T19:34:20.110Z,22.87
2019-03-13T19:36:21.720Z,22.88
2019-03-13T19:38:23.322Z,23.15
2019-03-13T19:40:24.961Z,23.12
2019-03-13T19:42:26.564Z,23.63
2019-03-13T19:44:28.206Z,23.84
2019-03-13T19:46:32.090Z,23.63
2019-03-13T19:48:32.827Z,23.55
2019-03-13T19:50:34.470Z,23.61
2019-03-13T19:52:36.130Z,23.27
2019-03-13T19:54:37.771Z,23.33
2019-03-13T19:56:39.754Z,23.27
2019-03-13T19:58:41.359Z,23.39
2019-03-13T20:00:43.004Z,23.34
2019-03-13T20:02:44.592Z,23.38
2019-03-13T20:04:47.505Z,23.54
2019-03-13T20:06:47.850Z,23.45
2019-03-13T20:08:49.798Z,23.58
2019-03-13T20:10:51.493Z,23.54
2019-03-13T20:12:53.151Z,23.54
2019-03-13T20:14:54.750Z,23.13
2019-03-13T20:16:56.341Z,23.13
2019-03-13T20:18:57.953Z,23.14
2019-03-13T20:20:59.566Z,23.22
2019-03-13T20:23:01.220Z,23.19
2019-03-13T20:25:02.862Z,23.33
2019-03-13T20:27:04.501Z,23.37
2019-03-13T20:29:06.116Z,23.25
2019-03-13T20:31:07.720Z,23.24
2019-03-13T20:33:09.469Z,23.08
2019-03-13T20:35:11.010Z,23.00
2019-03-13T20:37:12.620Z,22.98
2019-03-13T20:39:14.214Z,23.09
2019-03-13T20:41:15.827Z,23.14
2019-03-13T20:43:17.434Z,23.14
2019-03-13T20:45:19.070Z,23.20
2019-03-13T20:47:20.662Z,23.04
2019-03-13T20:49:22.254Z,22.99
2019-03-13T20:51:23.847Z,22.98
2019-03-13T20:53:25.446Z,23.04
2019-03-13T20:55:27.060Z,23.05
2019-03-13T20:57:28.645Z,22.80
2019-03-13T20:59:32.573Z,23.11
2019-03-13T21:01:31.952Z,23.35
2019-03-13T21:03:33.546Z,23.36
2019-03-13T21:05:35.155Z,23.19
2019-03-13T21:07:36.753Z,23.18
2019-03-13T21:09:38.378Z,23.23
2019-03-13T21:11:40.009Z,23.27
2019-03-13T21:13:41.616Z,23.43
2019-03-13T21:15:43.915Z,23.04
2019-03-13T21:17:44.914Z,22.80
2019-03-13T21:19:46.525Z,22.67
2019-03-13T21:21:48.181Z,22.70
2019-03-13T21:23:49.792Z,22.91
2019-03-13T21:25:51.386Z,22.94
2019-03-13T21:27:53.027Z,23.00
2019-03-13T21:29:54.631Z,23.03
2019-03-13T21:31:58.699Z,23.08
2019-03-13T21:34:00.296Z,23.03
2019-03-13T21:36:01.894Z,23.07
2019-03-13T21:38:03.535Z,23.11
2019-03-13T21:40:05.134Z,23.02
2019-03-13T21:42:06.769Z,22.93
2019-03-13T21:44:08.367Z,22.92
2019-03-13T21:46:09.967Z,22.92
2019-03-13T21:48:11.611Z,22.66
2019-03-13T21:50:13.213Z,22.91
2019-03-13T21:52:14.819Z,23.26
2019-03-13T21:54:16.407Z,23.23
2019-03-13T21:56:18.011Z,22.82
2019-03-13T21:58:19.689Z,23.01
2019-03-13T22:00:21.292Z,23.00
2019-03-13T22:02:32.210Z,23.01
2019-03-13T22:04:24.807Z,23.02
2019-03-13T22:06:29.125Z,23.27
2019-03-13T22:08:27.838Z,23.16
2019-03-13T22:10:29.447Z,23.50
2019-03-13T22:12:31.061Z,23.26
2019-03-13T22:14:32.648Z,23.09
2019-03-13T22:16:34.242Z,23.06
2019-03-13T22:18:35.864Z,23.04
2019-03-13T22:20:37.475Z,22.73
2019-03-13T22:22:39.088Z,20.82
2019-03-13T22:24:40.698Z,20.10
2019-03-13T22:26:42.371Z,20.90
2019-03-13T22:28:43.971Z,21.46
2019-03-13T22:30:45.584Z,21.72
2019-03-13T22:32:47.185Z,21.87
2019-03-13T22:34:48.778Z,21.93
2019-03-13T22:36:50.373Z,21.94
2019-03-13T22:38:51.985Z,21.97
2019-03-13T22:40:53.596Z,22.01
2019-03-13T22:42:55.190Z,22.05
2019-03-13T22:44:56.786Z,22.06
2019-03-13T22:46:58.395Z,22.09
2019-03-13T22:48:59.993Z,22.11
2019-03-13T22:51:02.518Z,22.15
2019-03-13T22:53:03.304Z,22.15
2019-03-13T22:55:04.938Z,22.17
2019-03-13T22:57:06.589Z,22.18
2019-03-13T22:59:08.190Z,22.20
2019-03-13T23:01:09.786Z,22.22
2019-03-13T23:03:11.431Z,22.21
2019-03-13T23:05:13.025Z,22.22
2019-03-13T23:07:14.649Z,22.22
2019-03-13T23:09:16.302Z,22.21
2019-03-13T23:11:19.597Z,22.21
2019-03-13T23:13:21.201Z,22.18
2019-03-13T23:15:22.817Z,22.19
2019-03-13T23:17:24.436Z,22.20
2019-03-13T23:19:26.049Z,22.20
2019-03-13T23:21:27.699Z,22.17
2019-03-13T23:23:29.445Z,22.16
2019-03-13T23:25:31.041Z,22.17
2019-03-13T23:27:32.638Z,22.18
2019-03-13T23:29:34.243Z,22.17
2019-03-13T23:31:35.867Z,22.16
2019-03-13T23:33:37.464Z,22.16
2019-03-13T23:35:39.065Z,22.13
2019-03-13T23:37:40.702Z,22.14
2019-03-13T23:39:42.310Z,22.12
2019-03-13T23:41:43.953Z,22.12
2019-03-13T23:43:45.564Z,22.09
2019-03-13T23:45:47.176Z,22.09
2019-03-13T23:47:48.820Z,22.07
2019-03-13T23:49:50.414Z,22.07
2019-03-13T23:51:52.064Z,22.07
2019-03-13T23:53:53.681Z,22.06
2019-03-13T23:55:55.299Z,22.00
2019-03-13T23:57:56.951Z,22.02
